Time;durP1;ratioP1;P1;durP2;ratioP2;P2;SDS_P1;SDS_P2;PMS_P1;PMS_P2;Temp;Humidity;BMP_temperature;BMP_pressure;BME280_temperature;BME280_humidity;BME280_pressure;Samples;Min_cycle;Max_cycle;Signal;HPM_P1;HPM_P2
2023/05/28 00:00:30;;;;;;;9.05;4.22;;;;;;;11.99;100.00;101189.09;6256125;28;20041;-96
2023/05/28 00:03:35;;;;;;;7.57;4.95;;;;;;;11.97;100.00;101183.19;6256167;28;20463;-96
2023/05/28 00:06:37;;;;;;;8.95;4.43;;;;;;;11.95;100.00;101188.50;6215624;28;20049;-96
2023/05/28 00:09:43;;;;;;;7.57;4.57;;;;;;;11.90;100.00;101182.84;6250890;28;20119;-96
2023/05/28 00:12:45;;;;;;;10.25;5.00;;;;;;;11.87;100.00;101182.22;6233375;28;20903;-96
2023/05/28 00:15:47;;;;;;;9.85;4.80;;;;;;;11.82;100.00;101179.94;6250231;28;20549;-96
2023/05/28 00:18:50;;;;;;;14.57;4.75;;;;;;;11.77;100.00;101179.44;6256603;28;20727;-96
2023/05/28 00:21:53;;;;;;;8.52;4.55;;;;;;;11.72;100.00;101177.19;6262374;28;20037;-96
2023/05/28 00:24:55;;;;;;;11.55;4.85;;;;;;;11.69;100.00;101182.59;6241598;28;20077;-96
2023/05/28 00:27:59;;;;;;;9.20;4.63;;;;;;;11.66;100.00;101176.81;6258759;28;20640;-96
2023/05/28 00:31:02;;;;;;;8.45;4.45;;;;;;;11.60;100.00;101175.47;6251918;28;20171;-96
2023/05/28 00:34:04;;;;;;;10.40;5.38;;;;;;;11.61;100.00;101179.75;6247540;28;20587;-96
2023/05/28 00:37:07;;;;;;;8.60;4.75;;;;;;;11.56;100.00;101174.06;6226772;28;20080;-96
2023/05/28 00:40:09;;;;;;;9.07;4.57;;;;;;;11.52;100.00;101175.22;6262079;28;20052;-96
2023/05/28 00:43:12;;;;;;;10.23;5.53;;;;;;;11.49;100.00;101175.44;6246806;28;20076;-96
2023/05/28 00:46:17;;;;;;;9.05;5.30;;;;;;;11.48;100.00;101171.19;6230257;28;20037;-96
2023/05/28 00:49:21;;;;;;;9.15;4.68;;;;;;;11.42;100.00;101167.28;6264752;28;20037;-96
2023/05/28 00:52:24;;;;;;;9.60;4.60;;;;;;;11.38;100.00;101165.88;6263886;28;20040;-96
2023/05/28 00:55:26;;;;;;;7.30;4.20;;;;;;;11.36;100.00;101155.59;6252674;28;20044;-96
2023/05/28 00:58:34;;;;;;;8.98;4.50;;;;;;;11.31;100.00;101159.47;6244761;28;20593;-96
2023/05/28 01:01:39;;;;;;;10.60;4.63;;;;;;;11.25;100.00;101154.72;6246745;28;20040;-96
2023/05/28 01:04:41;;;;;;;8.50;4.80;;;;;;;11.20;100.00;101150.69;6261958;28;20410;-96
2023/05/28 01:07:45;;;;;;;9.82;4.82;;;;;;;11.16;100.00;101148.44;6258004;28;20048;-96
2023/05/28 01:10:48;;;;;;;6.57;4.22;;;;;;;11.13;100.00;101144.28;6246598;28;20037;-96
2023/05/28 01:13:51;;;;;;;6.53;4.20;;;;;;;11.11;100.00;101148.75;6264625;28;20044;-96
2023/05/28 01:16:54;;;;;;;8.90;4.70;;;;;;;11.09;100.00;101147.22;6245250;28;20076;-96
2023/05/28 01:19:56;;;;;;;9.90;4.63;;;;;;;11.09;100.00;101147.22;6262927;28;20115;-96
2023/05/28 01:23:05;;;;;;;8.07;4.55;;;;;;;11.07;100.00;101147.31;6241148;28;20037;-96
2023/05/28 01:26:08;;;;;;;7.97;4.28;;;;;;;11.02;100.00;101154.59;6243868;28;20048;-96
2023/05/28 01:29:17;;;;;;;6.30;4.15;;;;;;;10.94;100.00;101155.13;6242059;28;20049;-96
2023/05/28 01:32:21;;;;;;;8.88;4.43;;;;;;;10.85;100.00;101153.16;6245749;28;20139;-96
2023/05/28 01:35:23;;;;;;;9.60;4.70;;;;;;;10.84;100.00;101163.66;6231760;28;20143;-96
2023/05/28 01:38:26;;;;;;;9.13;4.47;;;;;;;10.83;100.00;101159.41;6263871;28;20486;-96
2023/05/28 01:41:29;;;;;;;9.63;4.70;;;;;;;10.81;100.00;101154.34;6225396;28;20055;-96
2023/05/28 01:44:33;;;;;;;8.98;4.50;;;;;;;10.75;100.00;101150.41;6239779;28;20045;-96
2023/05/28 01:47:35;;;;;;;10.82;4.53;;;;;;;10.74;100.00;101146.16;6263500;28;20033;-96
2023/05/28 01:50:39;;;;;;;6.97;4.38;;;;;;;10.71;100.00;101140.38;6222583;28;20050;-96
2023/05/28 01:53:41;;;;;;;11.23;5.50;;;;;;;10.67;100.00;101137.16;6244468;28;20058;-96
2023/05/28 01:56:43;;;;;;;8.20;4.53;;;;;;;10.65;100.00;101130.44;6242889;28;20045;-96
2023/05/28 01:59:46;;;;;;;8.85;4.57;;;;;;;10.63;100.00;101129.72;6261571;28;20108;-96
2023/05/28 02:02:49;;;;;;;11.48;4.82;;;;;;;10.63;100.00;101124.53;6227514;28;20064;-96
2023/05/28 02:05:52;;;;;;;9.07;4.90;;;;;;;10.66;100.00;101124.34;6225240;28;20041;-96
2023/05/28 02:08:54;;;;;;;12.40;5.05;;;;;;;10.61;100.00;101116.03;6243234;28;20362;-96
2023/05/28 02:11:59;;;;;;;7.07;4.25;;;;;;;10.56;100.00;101124.16;6244896;28;20091;-96
2023/05/28 02:15:01;;;;;;;8.60;4.60;;;;;;;10.52;100.00;101131.28;6245217;28;20053;-96
2023/05/28 02:18:03;;;;;;;7.30;4.40;;;;;;;10.51;100.00;101132.22;6238855;28;20067;-96
2023/05/28 02:21:06;;;;;;;7.68;4.97;;;;;;;10.46;100.00;101130.88;6238707;28;20033;-96
2023/05/28 02:24:08;;;;;;;9.80;4.82;;;;;;;10.36;100.00;101128.13;6239737;28;20060;-96
2023/05/28 02:27:12;;;;;;;7.75;4.47;;;;;;;10.30;100.00;101128.50;6241964;28;20048;-96
2023/05/28 02:30:15;;;;;;;9.00;4.43;;;;;;;10.24;100.00;101134.91;6254082;28;20037;-96
2023/05/28 02:33:18;;;;;;;7.28;4.60;;;;;;;10.25;100.00;101136.56;6239862;28;20475;-96
2023/05/28 02:36:20;;;;;;;11.13;4.72;;;;;;;10.23;100.00;101137.59;6240094;28;20055;-96
2023/05/28 02:39:23;;;;;;;5.88;4.50;;;;;;;10.21;100.00;101136.88;6240077;28;20045;-96
2023/05/28 02:42:25;;;;;;;14.75;6.03;;;;;;;10.19;100.00;101136.16;6235875;28;20414;-96
2023/05/28 02:45:28;;;;;;;10.23;5.40;;;;;;;10.13;100.00;101133.03;6223043;28;20049;-96
2023/05/28 02:48:30;;;;;;;7.68;4.55;;;;;;;10.12;100.00;101126.22;6239578;28;20049;-96
2023/05/28 02:51:32;;;;;;;7.25;4.30;;;;;;;10.14;100.00;101123.53;6241055;28;20103;-96
2023/05/28 02:54:43;;;;;;;8.45;5.05;;;;;;;10.13;100.00;101133.03;6235850;28;20060;-96
2023/05/28 02:57:48;;;;;;;9.63;5.20;;;;;;;10.13;100.00;101138.19;6216625;28;20680;-96
2023/05/28 03:00:51;;;;;;;9.20;4.70;;;;;;;10.09;100.00;101121.25;6236481;28;20204;-96
2023/05/28 03:03:55;;;;;;;6.53;4.68;;;;;;;10.12;100.00;101126.22;6225405;28;20041;-96
2023/05/28 03:06:57;;;;;;;8.50;4.93;;;;;;;10.11;100.00;101132.34;6226463;28;20060;-96
2023/05/28 03:10:00;;;;;;;7.53;4.55;;;;;;;10.16;100.00;101136.34;6225916;28;20044;-96
2023/05/28 03:13:02;;;;;;;8.38;4.82;;;;;;;10.17;100.00;101123.31;6242854;28;20405;-96
2023/05/28 03:16:06;;;;;;;7.90;4.85;;;;;;;10.21;100.00;101123.94;6242837;28;20053;-96
2023/05/28 03:19:11;;;;;;;7.07;4.38;;;;;;;10.21;100.00;101122.19;6240759;28;20037;-96
2023/05/28 03:22:14;;;;;;;9.63;4.63;;;;;;;10.21;100.00;101131.69;6237303;28;20048;-96
2023/05/28 03:25:17;;;;;;;8.10;4.47;;;;;;;10.19;100.00;101133.56;6240739;28;20132;-96
2023/05/28 03:28:19;;;;;;;7.93;4.22;;;;;;;10.13;100.00;101130.44;6236431;28;20060;-96
2023/05/28 03:31:47;;;;;;;6.63;4.25;;;;;;;10.14;100.00;101124.34;6241802;28;20045;-96
2023/05/28 03:34:54;;;;;;;8.05;4.45;;;;;;;10.17;100.00;101125.09;6255129;28;20171;-96
2023/05/28 03:38:02;;;;;;;9.65;4.97;;;;;;;10.12;100.00;101133.97;6242676;28;20450;-96
2023/05/28 03:41:05;;;;;;;10.15;4.88;;;;;;;10.14;100.00;101126.94;6263089;28;20041;-96
2023/05/28 03:44:08;;;;;;;9.07;5.03;;;;;;;10.16;100.00;101121.69;6237065;28;20162;-96
2023/05/28 03:47:13;;;;;;;7.80;4.72;;;;;;;10.19;100.00;101121.47;6237398;28;20049;-96
2023/05/28 03:50:16;;;;;;;8.45;4.45;;;;;;;10.21;100.00;101129.09;6267486;28;20032;-96
2023/05/28 03:53:19;;;;;;;8.25;4.22;;;;;;;10.21;100.00;101129.94;6226022;28;20073;-96
2023/05/28 03:56:22;;;;;;;9.40;4.65;;;;;;;10.24;100.00;101121.16;6243725;28;20126;-96
2023/05/28 03:59:27;;;;;;;5.63;3.90;;;;;;;10.24;100.00;101118.56;6258078;28;20643;-96
2023/05/28 04:02:29;;;;;;;9.63;4.03;;;;;;;10.24;100.00;101124.56;6240959;28;20046;-96
2023/05/28 04:05:33;;;;;;;12.65;4.30;;;;;;;10.26;100.00;101124.44;6233515;28;20044;-96
2023/05/28 04:08:35;;;;;;;6.45;4.30;;;;;;;10.30;100.00;101123.34;6245976;28;20048;-96
2023/05/28 04:11:38;;;;;;;8.00;4.20;;;;;;;10.33;100.00;101129.16;6244484;28;21133;-96
2023/05/28 04:14:46;;;;;;;10.13;4.20;;;;;;;10.32;100.00;101129.25;6229704;28;20056;-96
2023/05/28 04:17:49;;;;;;;8.02;3.95;;;;;;;10.38;100.00;101134.00;6246254;28;20037;-96
2023/05/28 04:20:51;;;;;;;7.50;4.05;;;;;;;10.38;100.00;101123.63;6263863;28;20136;-96
2023/05/28 04:23:54;;;;;;;5.28;3.80;;;;;;;10.43;100.00;101118.97;6246333;28;20049;-96
2023/05/28 04:26:57;;;;;;;7.35;4.18;;;;;;;10.47;100.00;101130.78;6257035;28;20481;-96
2023/05/28 04:29:58;;;;;;;7.50;4.18;;;;;;;10.50;100.00;101130.56;6245982;28;20116;-96
2023/05/28 04:33:01;;;;;;;6.80;4.47;;;;;;;10.56;100.00;101129.34;6243030;28;20766;-96
2023/05/28 04:36:04;;;;;;;8.63;4.47;;;;;;;10.56;100.00;101135.31;6224045;28;20156;-96
2023/05/28 04:39:06;;;;;;;7.65;4.18;;;;;;;10.62;100.00;101135.84;6246231;28;20056;-96
2023/05/28 04:42:13;;;;;;;8.98;4.30;;;;;;;10.67;100.00;101131.16;6238543;28;20701;-96
2023/05/28 04:45:16;;;;;;;7.93;4.07;;;;;;;10.70;100.00;101131.75;6237723;28;20163;-96
2023/05/28 04:48:20;;;;;;;7.40;4.22;;;;;;;10.73;100.00;101129.00;6269631;28;20098;-96
2023/05/28 04:51:23;;;;;;;8.55;4.38;;;;;;;10.76;100.00;101135.72;6231478;28;20589;-96
2023/05/28 04:54:29;;;;;;;6.18;3.75;;;;;;;10.81;100.00;101140.53;6238962;28;20057;-96
2023/05/28 04:57:32;;;;;;;7.72;4.40;;;;;;;10.86;100.00;101134.13;6244309;28;20564;-96
2023/05/28 05:00:36;;;;;;;6.10;4.05;;;;;;;10.92;100.00;101128.50;6261076;28;20037;-96
2023/05/28 05:03:39;;;;;;;6.13;3.78;;;;;;;11.00;100.00;101130.53;6240490;28;20046;-96
2023/05/28 05:06:41;;;;;;;6.28;4.07;;;;;;;11.07;100.00;101144.72;6227282;28;20052;-96
2023/05/28 05:09:43;;;;;;;9.73;4.63;;;;;;;11.14;100.00;101140.75;6224807;28;20065;-96
2023/05/28 05:12:47;;;;;;;5.93;4.15;;;;;;;11.18;100.00;101143.97;6206965;28;20423;-96
2023/05/28 05:15:50;;;;;;;8.45;4.03;;;;;;;11.26;100.00;101152.03;6244768;28;20045;-96
2023/05/28 05:18:53;;;;;;;9.50;4.20;;;;;;;11.32;100.00;101150.75;6222361;28;20060;-96
2023/05/28 05:21:56;;;;;;;5.82;3.72;;;;;;;11.38;100.00;101156.31;6218958;28;20048;-96
2023/05/28 05:24:59;;;;;;;8.98;4.40;;;;;;;11.43;100.00;101153.41;6240111;28;20364;-96
2023/05/28 05:28:02;;;;;;;8.13;4.25;;;;;;;11.47;100.00;101152.22;6243927;28;20407;-96
2023/05/28 05:31:06;;;;;;;8.15;4.53;;;;;;;11.57;100.00;101158.38;6246871;28;20077;-96
2023/05/28 05:34:08;;;;;;;8.48;4.40;;;;;;;11.61;100.00;101159.81;6254390;28;20448;-96
2023/05/28 05:37:39;;;;;;;10.38;4.75;;;;;;;11.72;100.00;101151.25;6187385;28;20561;-96
2023/05/28 05:40:52;;;;;;;9.23;4.70;;;;;;;11.82;100.00;101157.41;6258738;28;20053;-96
2023/05/28 05:44:04;;;;;;;6.30;4.57;;;;;;;11.89;100.00;101165.59;6262582;28;20048;-96
2023/05/28 05:47:06;;;;;;;9.95;4.38;;;;;;;11.98;100.00;101162.31;6261522;28;20048;-96
2023/05/28 05:50:12;;;;;;;8.35;4.10;;;;;;;12.10;100.00;101164.94;6250185;28;20128;-96
2023/05/28 05:53:20;;;;;;;9.23;4.10;;;;;;;12.16;100.00;101160.13;6242179;28;20053;-96
2023/05/28 05:56:25;;;;;;;8.63;4.68;;;;;;;12.23;100.00;101165.69;6225755;28;20135;-96
2023/05/28 05:59:27;;;;;;;9.23;4.28;;;;;;;12.26;100.00;101160.25;6237736;28;20048;-96
2023/05/28 06:02:32;;;;;;;7.18;4.05;;;;;;;12.35;100.00;101169.13;6224084;28;20522;-96
2023/05/28 06:05:37;;;;;;;8.90;3.92;;;;;;;12.41;100.00;101164.25;6244221;28;20577;-96
2023/05/28 06:09:21;;;;;;;9.00;4.05;;;;;;;12.51;100.00;101154.00;6154181;28;21033;-96
2023/05/28 06:12:26;;;;;;;9.80;4.85;;;;;;;12.59;100.00;101162.03;6243478;28;20059;-96
2023/05/28 06:15:29;;;;;;;8.35;4.55;;;;;;;12.70;100.00;101158.59;6260912;28;20044;-96
2023/05/28 06:18:32;;;;;;;7.85;4.55;;;;;;;12.79;100.00;101162.25;6256716;28;20041;-96
2023/05/28 06:21:37;;;;;;;6.88;4.38;;;;;;;12.86;100.00;101159.03;6225031;28;20049;-96
2023/05/28 06:24:40;;;;;;;9.90;4.97;;;;;;;12.91;100.00;101156.09;6234883;28;20033;-96
2023/05/28 06:27:43;;;;;;;7.55;4.60;;;;;;;12.98;100.00;101156.44;6245140;28;20049;-96
2023/05/28 06:30:46;;;;;;;9.52;4.10;;;;;;;13.04;100.00;101149.00;6238300;28;20406;-96
2023/05/28 06:33:50;;;;;;;8.95;4.43;;;;;;;13.13;100.00;101145.66;6224731;28;20757;-96
2023/05/28 06:36:52;;;;;;;8.80;4.38;;;;;;;13.24;100.00;101154.34;6243848;28;20040;-96
2023/05/28 06:39:56;;;;;;;9.75;4.07;;;;;;;13.34;100.00;101150.94;6241890;28;20047;-96
2023/05/28 06:43:00;;;;;;;8.23;4.20;;;;;;;13.48;100.00;101162.81;6241937;28;20537;-96
2023/05/28 06:46:22;;;;;;;7.85;3.83;;;;;;;13.60;100.00;101157.56;6225263;28;20087;-96
2023/05/28 06:49:25;;;;;;;7.25;3.65;;;;;;;13.66;100.00;101164.88;6239200;28;20063;-96
2023/05/28 06:52:28;;;;;;;11.00;4.00;;;;;;;13.78;100.00;101161.25;6220047;28;20684;-96
2023/05/28 06:55:30;;;;;;;12.38;4.45;;;;;;;13.87;100.00;101163.13;6244947;28;20060;-96
2023/05/28 06:58:51;;;;;;;;;;;;;;;13.95;100.00;101163.28;6259699;28;20128;-96
2023/05/28 07:02:11;;;;;;;11.23;4.15;;;;;;;14.05;100.00;101168.56;6256393;28;19925;-96
2023/05/28 07:05:24;;;;;;;10.63;4.18;;;;;;;14.28;100.00;101173.63;6251727;28;20041;-96
2023/05/28 07:08:27;;;;;;;6.55;4.07;;;;;;;14.44;100.00;101164.38;6249654;28;20041;-96
2023/05/28 07:11:30;;;;;;;11.27;4.40;;;;;;;14.56;100.00;101164.34;6237849;28;20036;-96
2023/05/28 07:14:32;;;;;;;6.53;3.90;;;;;;;14.59;100.00;101164.06;6242890;28;20040;-96
2023/05/28 07:17:35;;;;;;;10.00;4.20;;;;;;;14.65;100.00;101166.13;6260103;28;20037;-96
2023/05/28 07:20:38;;;;;;;10.52;4.35;;;;;;;14.74;100.00;101161.94;6235167;28;20052;-96
2023/05/28 07:23:47;;;;;;;7.68;3.78;;;;;;;14.80;100.00;101166.59;6224020;28;20045;-96
2023/05/28 07:26:50;;;;;;;9.02;3.72;;;;;;;14.85;100.00;101162.63;6219647;28;20124;-96
2023/05/28 07:29:54;;;;;;;6.47;3.53;;;;;;;14.99;100.00;101168.44;6223725;28;20071;-96
2023/05/28 07:32:56;;;;;;;6.40;3.20;;;;;;;15.08;100.00;101168.47;6254717;28;20772;-96
2023/05/28 07:36:00;;;;;;;9.13;3.75;;;;;;;15.13;100.00;101160.22;6242757;28;20071;-96
2023/05/28 07:39:03;;;;;;;9.95;3.45;;;;;;;15.17;100.00;101158.97;6241390;28;20037;-96
2023/05/28 07:42:07;;;;;;;7.20;3.60;;;;;;;15.20;100.00;101163.91;6235363;28;20056;-96
2023/05/28 07:45:23;;;;;;;5.90;2.78;;;;;;;15.29;100.00;101157.09;6241916;28;20164;-96
2023/05/28 07:48:28;;;;;;;8.43;3.40;;;;;;;15.38;100.00;101163.25;6227776;28;20049;-96
2023/05/28 07:51:51;;;;;;;5.03;2.70;;;;;;;15.54;100.00;101155.72;6252185;28;20106;-96
2023/05/28 07:55:03;;;;;;;7.85;3.08;;;;;;;15.63;100.00;101156.69;6235309;28;20063;-96
2023/05/28 07:58:06;;;;;;;5.40;3.30;;;;;;;15.75;100.00;101154.75;6229157;28;20059;-96
2023/05/28 08:01:11;;;;;;;6.13;3.05;;;;;;;15.87;100.00;101157.06;6247488;28;20504;-96
2023/05/28 08:04:14;;;;;;;4.55;2.75;;;;;;;16.04;100.00;101155.53;6250294;28;20052;-96
2023/05/28 08:07:18;;;;;;;6.53;3.33;;;;;;;16.18;100.00;101143.81;6235954;28;20049;-96
2023/05/28 08:10:22;;;;;;;7.43;3.08;;;;;;;16.31;100.00;101146.09;6225693;28;20056;-96
2023/05/28 08:13:26;;;;;;;5.95;2.95;;;;;;;16.41;100.00;101148.69;6257920;28;20056;-96
2023/05/28 08:16:30;;;;;;;5.40;2.83;;;;;;;16.51;100.00;101142.44;6230651;28;20128;-96
2023/05/28 08:19:52;;;;;;;6.30;2.97;;;;;;;16.65;100.00;101156.00;6247149;28;20053;-96
2023/05/28 08:23:34;;;;;;;7.00;3.10;;;;;;;16.77;100.00;101150.44;6253375;28;20045;-96
2023/05/28 08:26:46;;;;;;;7.15;2.90;;;;;;;16.89;100.00;101145.84;6231509;28;20061;-96
2023/05/28 08:29:55;;;;;;;5.85;2.80;;;;;;;17.07;100.00;101145.03;6231918;28;21163;-96
2023/05/28 08:33:01;;;;;;;4.15;2.60;;;;;;;17.28;100.00;101142.97;6236644;28;20045;-96
2023/05/28 08:36:14;;;;;;;5.97;2.85;;;;;;;17.56;100.00;101140.25;6246561;28;20074;-96
2023/05/28 08:39:19;;;;;;;5.93;2.42;;;;;;;17.71;100.00;101151.81;6229634;28;20041;-96
2023/05/28 08:42:27;;;;;;;7.85;3.03;;;;;;;17.76;100.00;101149.59;6250400;28;20065;-96
2023/05/28 08:45:31;;;;;;;3.92;2.30;;;;;;;17.92;100.00;101143.66;6244473;28;20044;-96
2023/05/28 08:48:40;;;;;;;4.47;2.42;;;;;;;17.98;100.00;101142.22;6237356;28;20044;-96
2023/05/28 08:51:43;;;;;;;5.75;2.83;;;;;;;18.05;100.00;101138.00;6239066;28;20041;-96
2023/05/28 08:54:50;;;;;;;4.63;2.80;;;;;;;18.10;100.00;101148.84;6247414;28;20045;-96
2023/05/28 08:57:55;;;;;;;5.10;2.50;;;;;;;18.05;100.00;101144.06;6234531;28;20410;-96
2023/05/28 09:01:02;;;;;;;5.95;2.60;;;;;;;17.94;100.00;101146.13;6250796;28;20052;-96
2023/05/28 09:04:19;;;;;;;5.97;2.40;;;;;;;17.85;100.00;101134.78;6270700;28;20037;-96
2023/05/28 09:07:26;;;;;;;4.18;2.33;;;;;;;17.94;100.00;101136.47;6241286;28;20029;-96
2023/05/28 09:10:34;;;;;;;5.55;2.40;;;;;;;18.19;100.00;101134.00;6250349;28;20064;-96
2023/05/28 09:13:44;;;;;;;5.68;2.30;;;;;;;18.43;100.00;101138.50;6233277;28;20041;-96
2023/05/28 09:16:46;;;;;;;7.85;3.00;;;;;;;18.61;100.00;101139.25;6251702;28;20049;-97
2023/05/28 09:20:03;;;;;;;4.93;2.45;;;;;;;18.72;100.00;101136.31;6225610;28;20139;-96
2023/05/28 09:23:08;;;;;;;5.50;2.47;;;;;;;18.98;100.00;101135.47;6246492;28;20048;-96
2023/05/28 09:26:31;;;;;;;3.08;2.13;;;;;;;19.12;100.00;101129.56;6248454;28;20045;-96
2023/05/28 09:29:54;;;;;;;3.75;2.28;;;;;;;19.33;100.00;101130.91;6238469;28;20479;-96
2023/05/28 09:33:03;;;;;;;5.43;2.45;;;;;;;19.56;100.00;101134.50;6264197;23;20503;-96
2023/05/28 09:36:07;;;;;;;4.75;2.50;;;;;;;19.81;100.00;101134.50;6255806;28;20053;-91
2023/05/28 09:39:08;;;;;;;4.82;2.38;;;;;;;19.97;100.00;101133.63;6250055;28;20041;-91
2023/05/28 09:42:11;;;;;;;3.72;2.05;;;;;;;20.28;96.84;101135.53;6246249;28;20336;-89
2023/05/28 09:45:22;;;;;;;4.35;2.15;;;;;;;20.61;85.87;101130.97;6251767;28;20495;-89
2023/05/28 09:48:25;;;;;;;4.35;2.30;;;;;;;20.81;79.65;101126.91;6265086;28;20485;-93
2023/05/28 09:51:30;;;;;;;4.18;2.45;;;;;;;21.00;76.75;101133.56;6242701;28;20033;-95
2023/05/28 09:54:35;;;;;;;5.28;2.20;;;;;;;21.23;77.05;101114.31;6248780;28;20667;-93
2023/05/28 09:57:44;;;;;;;4.85;2.35;;;;;;;21.57;74.02;101110.44;6244239;28;20045;-95
2023/05/28 10:00:54;;;;;;;3.72;1.95;;;;;;;21.73;65.34;101108.44;6239286;28;20164;-94
2023/05/28 10:04:05;;;;;;;5.05;2.08;;;;;;;21.72;57.55;101106.81;6247155;28;20668;-94
2023/05/28 10:07:11;;;;;;;3.15;2.40;;;;;;;21.57;64.44;101113.88;6245650;28;20048;-94
2023/05/28 10:10:14;;;;;;;4.15;2.10;;;;;;;21.44;63.67;101100.47;6249865;28;20048;-95
2023/05/28 10:13:17;;;;;;;2.80;2.10;;;;;;;21.48;59.88;101107.84;6254736;28;20049;-94
2023/05/28 10:16:20;;;;;;;4.35;2.30;;;;;;;21.59;55.62;101096.09;6250807;28;20429;-93
2023/05/28 10:19:23;;;;;;;5.75;2.38;;;;;;;21.64;59.19;101093.72;6245150;28;20044;-94
2023/05/28 10:22:27;;;;;;;4.60;2.40;;;;;;;21.63;60.71;101096.53;6248749;28;20052;-94
2023/05/28 10:25:29;;;;;;;5.32;2.72;;;;;;;21.73;66.87;101097.91;6251578;28;20549;-96
2023/05/28 10:28:32;;;;;;;4.30;2.30;;;;;;;21.69;64.34;101086.09;6250887;28;20046;-94
2023/05/28 10:31:34;;;;;;;5.20;2.45;;;;;;;21.65;69.55;101095.34;6247301;28;20034;-94
2023/05/28 10:34:36;;;;;;;4.75;2.38;;;;;;;21.49;71.64;101098.97;6239357;28;20579;-94
2023/05/28 10:37:39;;;;;;;9.25;2.70;;;;;;;21.41;68.30;101093.75;6235533;28;20204;-94
2023/05/28 10:40:41;;;;;;;3.28;2.30;;;;;;;21.36;65.77;101098.72;6249114;28;20502;-95
2023/05/28 10:43:47;;;;;;;3.97;2.53;;;;;;;21.54;64.43;101103.72;6240479;28;20047;-93
2023/05/28 10:46:56;;;;;;;4.75;2.30;;;;;;;21.86;63.75;101092.03;6248137;28;20542;-95
2023/05/28 10:50:21;;;;;;;3.67;2.13;;;;;;;22.30;61.62;101108.84;6223336;28;20320;-95
2023/05/28 10:53:24;;;;;;;4.20;2.30;;;;;;;22.80;58.98;101104.53;6248827;28;20244;-92
2023/05/28 10:56:26;;;;;;;3.50;2.30;;;;;;;23.31;61.72;101099.13;6242304;28;20053;-94
2023/05/28 10:59:51;;;;;;;5.80;2.85;;;;;;;23.82;60.43;101104.19;6251471;28;20038;-95
2023/05/28 11:02:54;;;;;;;5.35;2.60;;;;;;;24.13;54.90;101102.94;6247635;28;20218;-92
2023/05/28 11:05:56;;;;;;;5.47;2.95;;;;;;;24.24;64.76;101101.56;6236885;28;20041;-92
2023/05/28 11:08:59;;;;;;;4.75;2.50;;;;;;;24.18;55.02;101099.72;6245687;28;20690;-95
2023/05/28 11:12:02;;;;;;;5.65;2.42;;;;;;;23.90;61.77;101094.47;6240363;28;20124;-92
2023/05/28 11:15:08;;;;;;;3.38;2.20;;;;;;;23.59;57.47;101099.13;6234670;28;20073;-92
2023/05/28 11:18:10;;;;;;;5.25;2.33;;;;;;;23.50;58.64;101094.19;6238949;28;20049;-91
2023/05/28 11:21:12;;;;;;;3.72;2.28;;;;;;;23.47;56.48;101102.50;6244372;28;20045;-91
2023/05/28 11:24:14;;;;;;;5.43;2.63;;;;;;;23.39;53.78;101104.28;6250710;28;20151;-92
2023/05/28 11:27:16;;;;;;;4.47;2.70;;;;;;;23.07;57.41;101100.34;6242569;28;20061;-92
2023/05/28 11:30:20;;;;;;;3.38;2.42;;;;;;;22.76;59.23;101098.00;6244698;28;20049;-92
2023/05/28 11:33:21;;;;;;;4.40;2.80;;;;;;;22.56;57.63;101103.06;6248777;28;20033;-92
2023/05/28 11:36:23;;;;;;;4.20;2.72;;;;;;;22.33;59.63;101098.75;6247806;28;20064;-92
2023/05/28 11:39:25;;;;;;;6.25;2.90;;;;;;;22.29;60.14;101097.47;6240085;28;20037;-92
2023/05/28 11:42:29;;;;;;;3.88;2.75;;;;;;;22.22;55.75;101091.28;6247359;28;20581;-92
2023/05/28 11:45:37;;;;;;;4.53;3.03;;;;;;;22.20;65.33;101095.13;6242597;28;20119;-92
2023/05/28 11:48:41;;;;;;;3.65;2.30;;;;;;;22.32;66.74;101091.81;6240245;28;20049;-92
2023/05/28 11:51:43;;;;;;;6.63;3.17;;;;;;;22.74;70.47;101087.63;6236716;28;20045;-92
2023/05/28 11:54:47;;;;;;;5.13;3.22;;;;;;;23.26;77.19;101090.16;6245701;28;20477;-90
2023/05/28 11:57:55;;;;;;;4.22;2.38;;;;;;;23.68;66.97;101094.53;6246301;28;20037;-89
2023/05/28 12:00:57;;;;;;;5.78;2.63;;;;;;;23.88;56.70;101093.88;6246209;28;20037;-91
2023/05/28 12:04:06;;;;;;;5.93;2.90;;;;;;;23.98;58.64;101089.84;6248362;28;20148;-91
2023/05/28 12:07:11;;;;;;;5.38;3.00;;;;;;;24.20;57.35;101087.91;6237888;28;20034;-91
2023/05/28 12:10:16;;;;;;;6.57;3.05;;;;;;;24.28;55.46;101086.94;6241334;28;20046;-91
2023/05/28 12:13:18;;;;;;;3.63;2.55;;;;;;;24.41;58.65;101084.31;6250572;28;20045;-91
2023/05/28 12:16:20;;;;;;;5.68;2.55;;;;;;;24.64;54.07;101076.06;6248951;28;20636;-91
2023/05/28 12:19:21;;;;;;;6.15;3.10;;;;;;;24.81;53.80;101080.97;6248597;28;20555;-91
2023/05/28 12:22:23;;;;;;;5.07;2.55;;;;;;;24.83;58.46;101073.66;6246667;28;20491;-91
2023/05/28 12:25:25;;;;;;;4.90;2.80;;;;;;;25.02;58.89;101075.50;6257913;28;20041;-94
2023/05/28 12:28:27;;;;;;;4.40;2.33;;;;;;;25.23;52.37;101071.06;6243859;28;20045;-92
2023/05/28 12:31:29;;;;;;;5.90;2.75;;;;;;;25.35;55.20;101062.28;6251201;28;20534;-93
2023/05/28 12:34:31;;;;;;;6.03;2.55;;;;;;;25.44;60.73;101068.19;6254843;28;20555;-94
2023/05/28 12:37:33;;;;;;;4.35;2.47;;;;;;;25.54;59.65;101054.50;6256610;28;20041;-94
2023/05/28 12:40:35;;;;;;;3.92;2.58;;;;;;;25.71;56.21;101066.31;6246305;28;20044;-94
2023/05/28 12:43:37;;;;;;;3.55;2.38;;;;;;;25.83;53.22;101063.00;6255177;28;20120;-94
2023/05/28 12:46:39;;;;;;;4.30;2.35;;;;;;;25.89;47.70;101060.34;6254757;28;20112;-93
2023/05/28 12:49:41;;;;;;;5.43;2.25;;;;;;;25.73;46.39;101058.94;6268343;28;20131;-92
2023/05/28 12:52:43;;;;;;;4.38;2.67;;;;;;;25.93;53.42;101060.75;6249201;28;20045;-92
2023/05/28 12:55:44;;;;;;;4.85;2.83;;;;;;;26.08;51.63;101050.69;6254098;28;20037;-91
2023/05/28 12:58:46;;;;;;;4.80;2.55;;;;;;;26.05;47.31;101045.78;6253241;28;20563;-94
2023/05/28 13:01:49;;;;;;;3.40;2.40;;;;;;;25.99;47.62;101039.50;6253739;28;20037;-93
2023/05/28 13:04:51;;;;;;;6.70;2.72;;;;;;;26.06;48.55;101041.28;6253095;28;20037;-94
2023/05/28 13:07:53;;;;;;;4.38;2.83;;;;;;;26.17;47.40;101038.81;6256069;28;20048;-93
2023/05/28 13:10:55;;;;;;;4.03;2.72;;;;;;;26.19;48.01;101035.94;6264178;28;20037;-92
2023/05/28 13:13:57;;;;;;;5.38;2.50;;;;;;;26.26;46.49;101035.88;6254348;28;20052;-92
2023/05/28 13:16:59;;;;;;;5.70;2.70;;;;;;;26.22;46.17;101030.22;6252891;28;20083;-93
2023/05/28 13:20:05;;;;;;;5.47;2.83;;;;;;;26.42;45.60;101020.28;6253417;28;20061;-95
2023/05/28 13:23:07;;;;;;;4.97;2.88;;;;;;;26.59;47.43;101017.16;6252487;28;20048;-96
2023/05/28 13:26:09;;;;;;;4.03;2.53;;;;;;;26.66;44.84;101017.91;6246117;28;20041;-95
2023/05/28 13:29:11;;;;;;;5.43;3.00;;;;;;;26.67;46.95;101018.72;6250376;28;20333;-95
2023/05/28 13:32:13;;;;;;;5.45;2.78;;;;;;;26.87;45.41;101018.56;6252946;28;20451;-93
2023/05/28 13:35:15;;;;;;;5.32;2.65;;;;;;;26.94;42.54;101012.16;6250531;28;20041;-91
2023/05/28 13:38:19;;;;;;;6.20;3.17;;;;;;;26.92;44.72;101008.09;6243966;28;20049;-95
2023/05/28 13:41:21;;;;;;;7.15;3.65;;;;;;;26.93;45.07;101005.25;6228587;28;20041;-95
2023/05/28 13:44:24;;;;;;;5.28;3.10;;;;;;;27.04;47.05;101001.03;6249167;28;20087;-94
2023/05/28 13:47:26;;;;;;;7.68;3.33;;;;;;;27.20;45.07;101016.44;6251323;28;20068;-94
2023/05/28 13:50:28;;;;;;;5.05;2.90;;;;;;;27.27;44.00;101005.75;6251079;28;20037;-94
2023/05/28 13:53:34;;;;;;;7.60;3.25;;;;;;;27.41;46.70;101011.75;6247288;28;20075;-94
2023/05/28 13:56:35;;;;;;;5.43;2.88;;;;;;;27.53;45.14;101009.16;6244128;28;20558;-94
2023/05/28 13:59:38;;;;;;;6.13;2.95;;;;;;;27.57;44.74;100995.19;6240570;28;20049;-96
2023/05/28 14:02:40;;;;;;;5.13;2.58;;;;;;;27.54;46.94;100995.66;6225246;28;20049;-96
2023/05/28 14:05:45;;;;;;;8.88;3.00;;;;;;;27.47;47.46;100987.75;6244903;28;20049;-96
2023/05/28 14:08:47;;;;;;;4.68;2.85;;;;;;;27.65;47.99;100988.75;6243553;28;20589;-95
2023/05/28 14:11:48;;;;;;;4.78;2.97;;;;;;;27.65;42.95;100986.94;6246598;28;20061;-96